createdAt,value
2022-12-31T00:00:51.892Z,11.70
2022-12-31T00:03:19.894Z,11.80
2022-12-31T00:05:47.820Z,11.80
2022-12-31T00:08:15.572Z,12.00
2022-12-31T00:10:43.464Z,12.00
2022-12-31T00:13:12.567Z,12.20
2022-12-31T00:15:41.564Z,12.10
2022-12-31T00:18:11.390Z,12.00
2022-12-31T00:20:41.292Z,12.10
2022-12-31T00:23:10.434Z,12.20
2022-12-31T00:25:38.679Z,12.10
2022-12-31T00:28:06.644Z,12.20
2022-12-31T00:30:35.416Z,12.30
2022-12-31T00:33:03.303Z,12.50
2022-12-31T00:35:34.566Z,12.40
2022-12-31T00:38:02.328Z,12.40
2022-12-31T00:40:30.215Z,12.40
2022-12-31T00:42:58.117Z,12.40
2022-12-31T00:45:25.913Z,12.40
2022-12-31T00:47:53.645Z,12.50
2022-12-31T00:50:21.479Z,12.70
2022-12-31T00:52:50.621Z,12.70
2022-12-31T00:55:18.399Z,12.90
2022-12-31T00:57:46.229Z,12.90
2022-12-31T01:00:15.419Z,12.80
2022-12-31T01:02:43.291Z,13.00
2022-12-31T01:05:11.208Z,13.00
2022-12-31T01:07:39.256Z,12.90
2022-12-31T01:10:09.603Z,13.00
2022-12-31T01:12:37.520Z,13.00
2022-12-31T01:15:06.176Z,13.20
2022-12-31T01:17:35.279Z,13.20
2022-12-31T01:20:03.173Z,13.20
2022-12-31T01:22:30.937Z,13.10
2022-12-31T01:24:58.680Z,13.20
2022-12-31T01:27:27.844Z,13.20
2022-12-31T01:29:55.623Z,13.20
2022-12-31T01:32:23.536Z,13.30
2022-12-31T01:34:51.428Z,13.20
2022-12-31T01:37:19.183Z,13.20
2022-12-31T01:39:46.972Z,13.30
2022-12-31T01:42:14.879Z,13.30
2022-12-31T01:44:55.384Z,13.30
2022-12-31T01:47:39.119Z,13.30
2022-12-31T01:50:15.875Z,13.30
2022-12-31T01:52:47.099Z,13.20
2022-12-31T01:55:18.784Z,13.30
2022-12-31T01:57:50.568Z,13.30
2022-12-31T02:00:20.529Z,13.30
2022-12-31T02:02:48.447Z,13.40
2022-12-31T02:05:23.173Z,13.30
2022-12-31T02:07:51.612Z,13.30
2022-12-31T02:10:19.555Z,13.30
2022-12-31T02:12:47.827Z,13.20
2022-12-31T02:15:16.029Z,13.30
2022-12-31T02:18:04.398Z,13.30
2022-12-31T02:21:13.676Z,13.30
2022-12-31T02:24:19.120Z,13.30
2022-12-31T02:26:56.570Z,13.30
2022-12-31T02:29:59.965Z,13.30
2022-12-31T02:32:37.948Z,13.30
2022-12-31T02:35:11.672Z,13.20
2022-12-31T02:37:41.662Z,13.30
2022-12-31T02:40:15.202Z,13.30
2022-12-31T02:42:42.984Z,13.30
2022-12-31T02:45:15.151Z,13.30
2022-12-31T02:47:58.450Z,13.30
2022-12-31T02:50:39.678Z,13.30
2022-12-31T02:53:21.236Z,13.30
2022-12-31T02:55:56.076Z,13.30
2022-12-31T02:58:51.272Z,13.30
2022-12-31T03:01:44.599Z,13.30
2022-12-31T03:04:33.141Z,13.40
2022-12-31T03:07:02.612Z,13.50
2022-12-31T03:09:30.403Z,13.50
2022-12-31T03:12:15.886Z,13.50
2022-12-31T03:14:43.757Z,13.40
2022-12-31T03:17:11.701Z,13.40
2022-12-31T03:19:58.567Z,13.60
2022-12-31T03:22:29.034Z,13.60
2022-12-31T03:25:16.860Z,13.70
2022-12-31T03:27:44.941Z,13.70
2022-12-31T03:30:14.053Z,13.70
2022-12-31T03:32:44.407Z,13.70
2022-12-31T03:35:15.236Z,13.60
2022-12-31T03:37:43.166Z,13.60
2022-12-31T03:40:13.789Z,13.70
2022-12-31T03:42:42.093Z,13.80
2022-12-31T03:45:11.777Z,13.90
2022-12-31T03:47:39.708Z,13.80
2022-12-31T03:50:09.019Z,13.80
2022-12-31T03:52:38.712Z,13.70
2022-12-31T03:55:08.129Z,13.70
2022-12-31T03:57:36.207Z,13.70
2022-12-31T04:00:04.983Z,13.80
2022-12-31T04:02:32.892Z,13.80
2022-12-31T04:05:00.749Z,14.00
2022-12-31T04:07:28.652Z,14.00
2022-12-31T04:09:58.873Z,13.90
2022-12-31T04:12:26.699Z,14.00
2022-12-31T04:14:54.483Z,14.10
2022-12-31T04:17:22.281Z,14.00
2022-12-31T04:19:50.047Z,14.20
2022-12-31T04:22:17.893Z,14.10
2022-12-31T04:24:45.784Z,14.20
2022-12-31T04:27:15.323Z,14.30
2022-12-31T04:29:43.063Z,14.20
2022-12-31T04:32:11.020Z,14.10
2022-12-31T04:34:38.907Z,14.00
2022-12-31T04:37:06.743Z,14.20
2022-12-31T04:39:34.553Z,14.10
2022-12-31T04:42:02.429Z,14.00
2022-12-31T04:44:34.762Z,14.10
2022-12-31T04:47:02.627Z,14.10
2022-12-31T04:49:30.375Z,14.20
2022-12-31T04:51:58.249Z,14.20
2022-12-31T04:54:26.194Z,14.10
2022-12-31T04:56:53.982Z,14.10
2022-12-31T04:59:22.378Z,14.00
2022-12-31T05:01:51.646Z,14.10
2022-12-31T05:04:19.439Z,14.30
2022-12-31T05:06:47.213Z,14.30
2022-12-31T05:09:15.019Z,14.30
2022-12-31T05:11:42.808Z,14.30
2022-12-31T05:14:10.926Z,14.50
2022-12-31T05:16:38.752Z,14.30
2022-12-31T05:19:09.481Z,14.20
2022-12-31T05:21:37.581Z,14.40
2022-12-31T05:24:06.028Z,14.50
2022-12-31T05:26:33.811Z,14.40
2022-12-31T05:29:01.614Z,14.30
2022-12-31T05:31:29.425Z,14.20
2022-12-31T05:33:57.458Z,14.20
2022-12-31T05:36:26.722Z,14.20
2022-12-31T05:38:54.564Z,14.10
2022-12-31T05:41:22.319Z,14.10
2022-12-31T05:43:51.451Z,14.10
2022-12-31T05:46:19.221Z,14.10
2022-12-31T05:48:47.043Z,14.00
2022-12-31T05:51:14.915Z,14.00
2022-12-31T05:53:44.054Z,14.00
2022-12-31T05:56:11.799Z,14.10
2022-12-31T05:58:39.565Z,14.10
2022-12-31T06:01:07.385Z,14.00
2022-12-31T06:03:35.208Z,14.00
2022-12-31T06:06:03.431Z,13.90
2022-12-31T06:08:31.265Z,13.80
2022-12-31T06:11:00.539Z,13.70
2022-12-31T06:13:28.653Z,13.70
2022-12-31T06:15:56.514Z,13.60
2022-12-31T06:18:24.472Z,13.50
2022-12-31T06:20:52.289Z,13.40
2022-12-31T06:23:20.121Z,13.40
2022-12-31T06:25:47.876Z,13.40
2022-12-31T06:28:20.373Z,13.30
2022-12-31T06:30:48.976Z,13.30
2022-12-31T06:33:16.855Z,13.20
2022-12-31T06:35:44.624Z,13.30
2022-12-31T06:38:12.367Z,13.20
2022-12-31T06:40:40.253Z,13.20
2022-12-31T06:43:08.020Z,13.10
2022-12-31T06:45:37.254Z,13.30
2022-12-31T06:48:05.444Z,13.20
2022-12-31T06:50:33.189Z,13.20
2022-12-31T06:53:01.233Z,13.20
2022-12-31T06:55:29.655Z,13.10
2022-12-31T06:57:57.971Z,13.10
2022-12-31T07:00:26.078Z,13.10
2022-12-31T07:03:14.825Z,13.10
2022-12-31T07:05:47.761Z,13.10
2022-12-31T07:08:27.428Z,13.00
2022-12-31T07:11:01.616Z,13.00
2022-12-31T07:13:54.568Z,13.00
2022-12-31T07:16:33.166Z,13.00
2022-12-31T07:19:13.251Z,13.00
2022-12-31T07:21:42.810Z,13.00
2022-12-31T07:24:12.221Z,13.00
2022-12-31T07:26:56.817Z,13.00
2022-12-31T07:29:39.329Z,13.10
2022-12-31T07:32:20.605Z,13.10
2022-12-31T07:34:56.768Z,13.10
2022-12-31T07:37:34.480Z,13.10
2022-12-31T07:40:10.630Z,13.10
2022-12-31T07:42:46.247Z,13.20
2022-12-31T07:45:20.231Z,13.10
2022-12-31T07:47:48.521Z,13.10
2022-12-31T07:50:19.773Z,13.10
2022-12-31T07:52:48.123Z,13.00
2022-12-31T07:55:16.513Z,13.00
2022-12-31T07:57:52.592Z,13.00
2022-12-31T08:00:21.020Z,13.00
2022-12-31T08:03:02.922Z,13.00
2022-12-31T08:05:38.876Z,13.00
2022-12-31T08:08:17.017Z,13.00
2022-12-31T08:10:52.630Z,13.00
2022-12-31T08:13:20.848Z,13.00
2022-12-31T08:15:49.308Z,13.10
2022-12-31T08:18:17.667Z,13.10
2022-12-31T08:20:59.537Z,13.20
2022-12-31T08:23:41.593Z,13.20
2022-12-31T08:26:26.336Z,13.30
2022-12-31T08:29:30.194Z,13.30
2022-12-31T08:32:04.415Z,13.20
2022-12-31T08:34:39.430Z,13.20
2022-12-31T08:37:14.275Z,13.30
2022-12-31T08:39:55.560Z,13.40
2022-12-31T08:42:30.071Z,13.40
2022-12-31T08:45:08.891Z,13.50
2022-12-31T08:47:46.629Z,13.50
2022-12-31T08:50:16.364Z,13.60
2022-12-31T08:52:46.592Z,13.80
2022-12-31T08:55:16.888Z,13.90
2022-12-31T08:57:54.105Z,14.10
2022-12-31T09:00:22.862Z,14.20
2022-12-31T09:03:15.277Z,14.40
2022-12-31T09:05:54.564Z,14.50
2022-12-31T09:08:35.577Z,14.70
2022-12-31T09:11:17.681Z,14.80
2022-12-31T09:14:14.516Z,14.90
2022-12-31T09:16:52.488Z,15.00
2022-12-31T09:19:20.397Z,15.00
2022-12-31T09:21:48.714Z,15.00
2022-12-31T09:24:18.566Z,15.10
2022-12-31T09:26:58.234Z,15.10
2022-12-31T09:29:36.439Z,15.10
2022-12-31T09:32:14.728Z,15.20
2022-12-31T09:34:48.419Z,15.20
2022-12-31T09:37:21.509Z,15.20
2022-12-31T09:39:51.089Z,15.20
2022-12-31T09:42:48.770Z,15.20
2022-12-31T09:45:44.259Z,15.20
2022-12-31T09:48:50.784Z,15.20
2022-12-31T09:51:31.120Z,15.30
2022-12-31T09:54:29.001Z,15.40
2022-12-31T09:57:40.660Z,15.40
2022-12-31T10:00:16.364Z,15.60
2022-12-31T10:02:58.478Z,15.70
2022-12-31T10:05:57.882Z,15.90
2022-12-31T10:08:47.776Z,16.00
2022-12-31T10:11:20.810Z,16.00
2022-12-31T10:13:59.140Z,16.10
2022-12-31T10:16:49.573Z,16.20
2022-12-31T10:19:43.340Z,16.30
2022-12-31T10:22:34.348Z,16.40
2022-12-31T10:25:19.646Z,16.50
2022-12-31T10:27:55.663Z,16.60
2022-12-31T10:30:26.628Z,16.50
2022-12-31T10:33:06.852Z,16.60
2022-12-31T10:35:41.963Z,16.50
2022-12-31T10:38:28.068Z,16.50
2022-12-31T10:41:34.624Z,16.60
2022-12-31T10:44:37.082Z,16.50
2022-12-31T10:47:40.380Z,16.40
2022-12-31T10:50:48.524Z,16.40
2022-12-31T10:53:47.810Z,16.40
2022-12-31T10:57:06.955Z,16.30
2022-12-31T11:00:22.764Z,16.30
2022-12-31T11:03:29.302Z,16.30
2022-12-31T11:06:57.654Z,16.30
2022-12-31T11:10:11.820Z,16.30
2022-12-31T11:13:12.386Z,16.30
2022-12-31T11:15:57.720Z,16.30
2022-12-31T11:18:32.023Z,16.20
2022-12-31T11:21:12.993Z,16.20
2022-12-31T11:23:49.555Z,16.20
2022-12-31T11:26:30.355Z,16.20
2022-12-31T11:29:17.540Z,16.20
2022-12-31T11:32:06.496Z,16.30
2022-12-31T11:35:04.613Z,16.30
2022-12-31T11:37:45.595Z,16.30
2022-12-31T11:40:40.344Z,16.40
2022-12-31T11:43:21.889Z,16.50
2022-12-31T11:46:09.209Z,16.50
2022-12-31T11:48:45.844Z,16.50
2022-12-31T11:51:35.012Z,16.60
2022-12-31T11:54:32.718Z,16.60
2022-12-31T11:57:06.633Z,16.70
2022-12-31T11:59:35.952Z,16.80
2022-12-31T12:02:19.044Z,16.90
2022-12-31T12:04:51.047Z,16.90
2022-12-31T12:07:20.325Z,17.10
2022-12-31T12:09:49.117Z,17.10
2022-12-31T12:12:20.031Z,17.10
2022-12-31T12:14:53.467Z,17.10
2022-12-31T12:17:32.000Z,17.10
2022-12-31T12:20:04.935Z,17.30
2022-12-31T12:22:33.136Z,17.30
2022-12-31T12:25:06.297Z,17.40
2022-12-31T12:27:37.049Z,17.60
2022-12-31T12:30:20.584Z,17.70
2022-12-31T12:32:54.106Z,17.90
2022-12-31T12:35:27.002Z,18.00
2022-12-31T12:38:03.119Z,18.00
2022-12-31T12:40:34.053Z,18.30
2022-12-31T12:43:03.245Z,18.40
2022-12-31T12:45:47.800Z,18.40
2022-12-31T12:48:26.570Z,18.50
2022-12-31T12:50:54.485Z,18.50
2022-12-31T12:53:33.361Z,18.40
2022-12-31T12:56:13.196Z,18.30
2022-12-31T12:58:56.636Z,18.20
2022-12-31T13:01:36.850Z,18.10
2022-12-31T13:04:36.229Z,18.00
2022-12-31T13:07:17.263Z,18.00
2022-12-31T13:10:07.825Z,17.80
2022-12-31T13:13:13.869Z,17.70
2022-12-31T13:15:36.892Z,17.60
2022-12-31T13:18:18.572Z,17.40
2022-12-31T13:20:51.785Z,17.40
2022-12-31T13:23:27.538Z,17.40
2022-12-31T13:26:05.777Z,17.40
2022-12-31T13:28:35.050Z,17.30
2022-12-31T13:31:07.327Z,17.30
2022-12-31T13:33:40.826Z,17.20
2022-12-31T13:36:10.520Z,17.00
2022-12-31T13:38:42.448Z,16.90
2022-12-31T13:41:15.835Z,16.90
2022-12-31T13:43:51.239Z,16.80
2022-12-31T13:46:24.527Z,16.70
2022-12-31T13:48:57.054Z,16.70
2022-12-31T13:51:35.093Z,16.60
2022-12-31T13:54:07.543Z,16.50
2022-12-31T13:56:38.488Z,16.40
2022-12-31T13:59:15.756Z,16.40
2022-12-31T14:01:50.922Z,16.30
2022-12-31T14:04:26.163Z,16.20
2022-12-31T14:06:58.800Z,16.10
2022-12-31T14:09:29.661Z,16.10
2022-12-31T14:12:18.619Z,16.00
2022-12-31T14:14:54.433Z,15.90
2022-12-31T14:17:29.657Z,15.80
2022-12-31T14:20:05.696Z,15.70
2022-12-31T14:22:41.896Z,15.60
2022-12-31T14:25:20.699Z,15.60
2022-12-31T14:27:49.966Z,15.50
2022-12-31T14:30:21.176Z,15.30
2022-12-31T14:33:16.351Z,15.30
2022-12-31T14:36:03.944Z,15.10
2022-12-31T14:38:44.958Z,15.00
2022-12-31T14:41:27.376Z,14.90
2022-12-31T14:44:06.552Z,14.80
2022-12-31T14:46:40.784Z,14.80
2022-12-31T14:49:25.880Z,14.70
2022-12-31T14:51:55.002Z,14.50
2022-12-31T14:54:29.383Z,14.30
2022-12-31T14:56:57.300Z,14.20
2022-12-31T14:59:27.784Z,14.20
2022-12-31T15:01:57.982Z,14.10
2022-12-31T15:04:33.148Z,14.00
2022-12-31T15:07:10.407Z,13.90
2022-12-31T15:10:10.478Z,13.80
2022-12-31T15:12:59.177Z,13.80
2022-12-31T15:16:05.687Z,13.60
2022-12-31T15:18:48.808Z,13.50
2022-12-31T15:21:34.754Z,13.40
2022-12-31T15:24:14.666Z,13.20
2022-12-31T15:26:50.272Z,13.10
2022-12-31T15:29:33.079Z,13.10
2022-12-31T15:32:04.222Z,12.90
2022-12-31T15:34:34.776Z,12.90
2022-12-31T15:37:04.347Z,12.70
2022-12-31T15:39:44.350Z,12.70
2022-12-31T15:42:40.642Z,12.60
2022-12-31T15:45:17.223Z,12.50
2022-12-31T15:47:50.177Z,12.30
2022-12-31T15:50:22.510Z,12.30
2022-12-31T15:52:54.709Z,12.20
2022-12-31T15:55:31.754Z,12.20
2022-12-31T15:58:02.316Z,12.10
2022-12-31T16:00:44.415Z,12.00
2022-12-31T16:03:22.662Z,11.90
2022-12-31T16:05:51.035Z,11.90
2022-12-31T16:08:22.378Z,11.80
2022-12-31T16:10:51.700Z,11.70
2022-12-31T16:13:22.783Z,11.70
2022-12-31T16:15:53.097Z,11.60
2022-12-31T16:18:23.227Z,11.50
2022-12-31T16:20:51.804Z,11.50
2022-12-31T16:23:24.885Z,11.50
2022-12-31T16:25:58.597Z,11.40
2022-12-31T16:28:31.012Z,11.40
2022-12-31T16:31:02.922Z,11.30
2022-12-31T16:33:32.825Z,11.10
2022-12-31T16:36:02.366Z,11.10
2022-12-31T16:38:35.428Z,11.10
2022-12-31T16:41:19.845Z,11.10
2022-12-31T16:43:49.687Z,11.00
2022-12-31T16:46:20.877Z,11.10
2022-12-31T16:48:52.769Z,11.10
2022-12-31T16:51:23.351Z,10.90
2022-12-31T16:53:52.298Z,10.80
2022-12-31T16:56:25.951Z,10.80
2022-12-31T16:59:01.213Z,10.80
2022-12-31T17:01:32.540Z,10.70
2022-12-31T17:04:05.354Z,10.70
2022-12-31T17:06:33.622Z,10.70
2022-12-31T17:09:20.879Z,10.80
2022-12-31T17:11:55.623Z,10.70
2022-12-31T17:14:25.504Z,10.60
2022-12-31T17:17:03.257Z,10.60
2022-12-31T17:19:41.295Z,10.60
2022-12-31T17:22:14.036Z,10.60
2022-12-31T17:24:42.212Z,10.60
2022-12-31T17:27:11.730Z,10.50
2022-12-31T17:29:39.562Z,10.50
2022-12-31T17:32:26.507Z,10.60
2022-12-31T17:34:54.383Z,10.60
2022-12-31T17:37:26.892Z,10.50
2022-12-31T17:40:17.009Z,10.40
2022-12-31T17:42:47.559Z,10.40
2022-12-31T17:45:20.907Z,10.30
2022-12-31T17:47:52.398Z,10.40
2022-12-31T17:50:22.323Z,10.20
2022-12-31T17:52:50.210Z,10.30
2022-12-31T17:55:18.035Z,10.30
2022-12-31T17:57:52.160Z,10.30
2022-12-31T18:00:22.283Z,10.30
2022-12-31T18:02:50.211Z,10.40
2022-12-31T18:05:20.022Z,10.20
2022-12-31T18:07:48.318Z,10.30
2022-12-31T18:10:18.844Z,10.30
2022-12-31T18:12:49.598Z,10.30
2022-12-31T18:15:19.083Z,10.30
2022-12-31T18:17:46.940Z,10.40
2022-12-31T18:20:15.185Z,10.50
2022-12-31T18:22:44.442Z,10.50
2022-12-31T18:25:16.939Z,10.40
2022-12-31T18:27:44.747Z,10.40
2022-12-31T18:30:16.384Z,10.50
2022-12-31T18:32:45.389Z,10.50
2022-12-31T18:35:33.263Z,10.50
2022-12-31T18:38:04.127Z,10.40
2022-12-31T18:40:33.886Z,10.50
2022-12-31T18:43:05.070Z,10.50
2022-12-31T18:45:34.628Z,10.40
2022-12-31T18:48:02.552Z,10.40
2022-12-31T18:50:30.328Z,10.40
2022-12-31T18:52:58.162Z,10.40
2022-12-31T18:55:31.946Z,10.30
2022-12-31T18:57:59.787Z,10.40
2022-12-31T19:00:27.546Z,10.40
2022-12-31T19:02:56.735Z,10.40
2022-12-31T19:05:26.312Z,10.40
2022-12-31T19:07:54.812Z,10.30
2022-12-31T19:10:22.910Z,10.30
2022-12-31T19:12:50.893Z,10.20
2022-12-31T19:15:25.355Z,10.40
2022-12-31T19:17:53.530Z,10.70
2022-12-31T19:20:22.898Z,10.70
2022-12-31T19:22:50.681Z,10.70
2022-12-31T19:25:21.537Z,10.80
2022-12-31T19:27:50.009Z,10.80
2022-12-31T19:30:24.426Z,10.80
2022-12-31T19:32:53.379Z,10.70
2022-12-31T19:35:23.595Z,10.60
2022-12-31T19:37:53.304Z,10.60
2022-12-31T19:40:23.574Z,10.50
2022-12-31T19:42:53.258Z,10.50
2022-12-31T19:45:22.933Z,10.60
2022-12-31T19:47:51.196Z,10.40
2022-12-31T19:50:22.573Z,10.40
2022-12-31T19:52:51.727Z,10.30
2022-12-31T19:55:21.148Z,10.30
2022-12-31T19:57:49.753Z,10.20
2022-12-31T20:00:19.191Z,10.10
2022-12-31T20:02:49.012Z,10.00
2022-12-31T20:05:19.322Z,9.90
2022-12-31T20:07:48.512Z,9.80
2022-12-31T20:10:16.414Z,9.90
2022-12-31T20:12:44.861Z,9.90
2022-12-31T20:15:13.154Z,9.90
2022-12-31T20:17:40.963Z,9.80
2022-12-31T20:20:09.527Z,9.80
2022-12-31T20:22:37.340Z,9.80
2022-12-31T20:25:07.444Z,9.80
2022-12-31T20:27:35.646Z,9.80
2022-12-31T20:30:03.512Z,9.80
2022-12-31T20:32:31.793Z,9.80
2022-12-31T20:34:59.613Z,9.70
2022-12-31T20:37:27.393Z,9.60
2022-12-31T20:39:55.190Z,9.60
2022-12-31T20:42:24.378Z,9.50
2022-12-31T20:44:52.159Z,9.50
2022-12-31T20:47:19.917Z,9.40
2022-12-31T20:52:35.868Z,9.40
2022-12-31T20:55:03.643Z,9.40
2022-12-31T20:57:33.920Z,9.40
2022-12-31T21:00:01.957Z,9.40
2022-12-31T21:02:40.930Z,9.40
2022-12-31T21:05:10.668Z,9.40
2022-12-31T21:07:38.659Z,9.40
2022-12-31T21:10:07.217Z,9.40
2022-12-31T21:12:45.454Z,9.50
2022-12-31T21:15:14.049Z,9.40
2022-12-31T21:17:41.854Z,9.40
2022-12-31T21:20:10.941Z,9.30
2022-12-31T21:22:38.723Z,9.30
2022-12-31T21:25:07.157Z,9.20
2022-12-31T21:27:36.837Z,9.20
2022-12-31T21:30:20.781Z,9.20
2022-12-31T21:32:48.996Z,9.20
2022-12-31T21:35:43.392Z,9.30
2022-12-31T21:38:06.597Z,9.30
2022-12-31T21:40:35.227Z,9.10
2022-12-31T21:43:04.445Z,9.20
2022-12-31T21:45:32.353Z,9.20
2022-12-31T21:48:18.347Z,9.30
2022-12-31T21:50:48.784Z,9.20
2022-12-31T21:53:23.484Z,9.20
2022-12-31T21:56:11.511Z,9.20
2022-12-31T21:58:42.109Z,9.10
2022-12-31T22:01:33.737Z,9.10
2022-12-31T22:04:01.705Z,9.20
2022-12-31T22:06:29.559Z,9.20
2022-12-31T22:08:58.006Z,9.10
2022-12-31T22:11:27.514Z,9.00
2022-12-31T22:13:56.703Z,8.90
2022-12-31T22:16:24.643Z,8.90
2022-12-31T22:18:55.542Z,8.80
2022-12-31T22:21:25.196Z,8.80
2022-12-31T22:23:54.843Z,8.90
2022-12-31T22:26:24.774Z,8.90
2022-12-31T22:28:52.927Z,9.00
2022-12-31T22:31:24.327Z,8.90
2022-12-31T22:33:52.340Z,9.00
2022-12-31T22:36:21.874Z,9.00
2022-12-31T22:38:50.829Z,9.00
2022-12-31T22:41:21.090Z,9.00
2022-12-31T22:43:50.349Z,9.00
2022-12-31T22:46:20.102Z,9.00
2022-12-31T22:48:49.943Z,8.80
2022-12-31T22:51:18.597Z,8.90
2022-12-31T22:53:46.734Z,8.80
2022-12-31T22:56:16.681Z,8.80
2022-12-31T22:58:44.996Z,8.80
2022-12-31T23:01:18.032Z,8.80
2022-12-31T23:03:46.090Z,8.70
2022-12-31T23:06:15.630Z,8.70
2022-12-31T23:09:03.612Z,8.70
2022-12-31T23:11:30.568Z,8.60
2022-12-31T23:14:15.878Z,8.80
2022-12-31T23:17:29.474Z,8.70
2022-12-31T23:20:06.415Z,8.80
2022-12-31T23:22:52.983Z,8.80
2022-12-31T23:25:20.853Z,9.00
2022-12-31T23:27:48.639Z,8.90
2022-12-31T23:30:16.436Z,9.00
2022-12-31T23:32:44.260Z,8.90
2022-12-31T23:35:12.028Z,9.00
2022-12-31T23:37:41.142Z,9.00
2022-12-31T23:40:12.327Z,8.90
2022-12-31T23:42:42.233Z,9.00
2022-12-31T23:45:10.599Z,9.10
2022-12-31T23:47:39.212Z,9.10
2022-12-31T23:50:08.105Z,9.00
2022-12-31T23:52:35.930Z,9.10
2022-12-31T23:55:05.632Z,9.20
2022-12-31T23:57:33.406Z,9.20
